Time;durP1;ratioP1;P1;durP2;ratioP2;P2;SDS_P1;SDS_P2;PMS_P1;PMS_P2;Temp;Humidity;BMP_temperature;BMP_pressure;BME280_temperature;BME280_humidity;BME280_pressure;Samples;Min_cycle;Max_cycle;Signal;HPM_P1;HPM_P2
2021/07/31 00:01:11;;;;;;;6.88;3.10;;;15.30;99.90;;;;;;5131967;27;20039;-64
2021/07/31 00:03:38;;;;;;;5.57;2.90;;;15.30;99.90;;;;;;5130002;27;20065;-64
2021/07/31 00:06:05;;;;;;;7.10;3.15;;;15.30;99.90;;;;;;5127548;27;20087;-64
2021/07/31 00:08:31;;;;;;;7.63;3.15;;;15.30;99.90;;;;;;5131553;27;20062;-64
2021/07/31 00:10:57;;;;;;;5.47;2.95;;;15.30;99.90;;;;;;5113366;27;20635;-64
2021/07/31 00:13:24;;;;;;;4.55;2.58;;;15.30;99.90;;;;;;5131696;27;20483;-64
2021/07/31 00:15:50;;;;;;;3.53;2.47;;;15.30;99.90;;;;;;5131213;27;20046;-64
2021/07/31 00:18:16;;;;;;;5.47;3.15;;;15.30;99.90;;;;;;5130054;27;20043;-64
2021/07/31 00:20:42;;;;;;;7.15;3.10;;;15.30;99.90;;;;;;5131712;27;20072;-64
2021/07/31 00:23:08;;;;;;;6.38;2.95;;;15.30;99.90;;;;;;5130583;27;20404;-64
2021/07/31 00:25:34;;;;;;;5.07;2.80;;;15.20;99.90;;;;;;5126850;27;20046;-64
2021/07/31 00:27:59;;;;;;;5.47;2.80;;;15.20;99.90;;;;;;5125640;27;20035;-64
2021/07/31 00:30:27;;;;;;;4.93;2.80;;;15.20;99.90;;;;;;5131610;27;20039;-64
2021/07/31 00:32:53;;;;;;;7.60;3.20;;;15.20;99.90;;;;;;5130247;27;20074;-64
2021/07/31 00:35:19;;;;;;;6.55;2.80;;;15.20;99.90;;;;;;5130827;27;20138;-64
2021/07/31 00:37:45;;;;;;;4.43;2.80;;;15.20;99.90;;;;;;5111901;27;20092;-64
2021/07/31 00:40:12;;;;;;;5.10;2.40;;;15.20;99.90;;;;;;5129383;27;20031;-64
2021/07/31 00:42:41;;;;;;;4.93;2.97;;;15.20;99.90;;;;;;5130506;27;20068;-64
2021/07/31 00:45:09;;;;;;;6.93;2.80;;;15.20;99.90;;;;;;5130614;27;20050;-64
2021/07/31 00:47:35;;;;;;;5.03;2.95;;;15.30;99.90;;;;;;5130562;27;20043;-65
2021/07/31 00:50:01;;;;;;;5.40;3.13;;;15.20;99.90;;;;;;5131415;28;20410;-64
2021/07/31 00:52:27;;;;;;;6.40;3.15;;;15.20;99.90;;;;;;5130926;28;20123;-64
2021/07/31 00:54:55;;;;;;;6.13;3.22;;;15.20;99.90;;;;;;5130525;28;20110;-64
2021/07/31 00:57:22;;;;;;;5.40;3.03;;;15.20;99.90;;;;;;5129714;28;20062;-64
2021/07/31 00:59:49;;;;;;;6.85;3.22;;;15.30;99.90;;;;;;5131839;27;20127;-64
2021/07/31 01:02:15;;;;;;;6.95;3.22;;;15.30;99.90;;;;;;5129466;28;20419;-64
2021/07/31 01:04:40;;;;;;;6.90;3.90;;;15.30;99.90;;;;;;5129033;28;20043;-64
2021/07/31 01:07:06;;;;;;;8.82;3.00;;;15.30;99.90;;;;;;5131099;28;20040;-65
2021/07/31 01:09:32;;;;;;;8.45;3.63;;;15.30;99.90;;;;;;5130064;28;20476;-65
2021/07/31 01:11:57;;;;;;;10.95;4.22;;;15.40;99.90;;;;;;5129880;28;20431;-64
2021/07/31 01:14:23;;;;;;;6.43;3.75;;;15.30;99.90;;;;;;5131864;28;20074;-64
2021/07/31 01:16:49;;;;;;;8.20;3.38;;;15.40;99.90;;;;;;5129416;27;20114;-64
2021/07/31 01:19:14;;;;;;;7.55;3.97;;;15.40;99.90;;;;;;5130730;28;20530;-64
2021/07/31 01:21:41;;;;;;;8.68;3.83;;;15.30;99.90;;;;;;5130072;28;20042;-64
2021/07/31 01:24:09;;;;;;;10.30;4.28;;;15.40;99.90;;;;;;5124786;28;20035;-64
2021/07/31 01:26:41;;;;;;;9.75;3.80;;;15.40;99.90;;;;;;5130129;28;20043;-64
2021/07/31 01:29:08;;;;;;;7.95;3.92;;;15.40;99.90;;;;;;5112059;28;20034;-64
2021/07/31 01:31:35;;;;;;;8.55;4.47;;;15.50;99.90;;;;;;5128597;28;20039;-64
2021/07/31 01:34:02;;;;;;;8.95;4.28;;;15.50;99.90;;;;;;5127623;27;20035;-64
2021/07/31 01:36:28;;;;;;;8.50;4.45;;;15.50;99.90;;;;;;5130156;28;20039;-64
2021/07/31 01:38:55;;;;;;;9.45;4.65;;;15.50;99.90;;;;;;5131317;27;20108;-64
2021/07/31 01:41:21;;;;;;;11.75;4.57;;;15.50;99.90;;;;;;5132635;27;20080;-64
2021/07/31 01:43:47;;;;;;;9.07;4.78;;;15.40;99.90;;;;;;5133860;27;20076;-64
2021/07/31 01:46:13;;;;;;;9.85;4.55;;;15.50;99.90;;;;;;5134502;27;20043;-64
2021/07/31 01:48:38;;;;;;;11.23;4.43;;;15.40;99.90;;;;;;5133936;27;20050;-64
2021/07/31 01:51:05;;;;;;;11.73;5.22;;;15.40;99.90;;;;;;5133240;27;20484;-64
2021/07/31 01:53:30;;;;;;;8.90;4.70;;;15.40;99.90;;;;;;5134624;27;20080;-64
2021/07/31 01:55:56;;;;;;;10.88;4.38;;;15.30;99.90;;;;;;5134076;27;20044;-64
2021/07/31 01:58:21;;;;;;;10.15;5.05;;;15.30;99.90;;;;;;5134716;27;20049;-64
2021/07/31 02:00:47;;;;;;;7.65;4.60;;;15.30;99.90;;;;;;5133884;27;20042;-64
2021/07/31 02:03:12;;;;;;;9.45;4.78;;;15.30;99.90;;;;;;5132903;27;20058;-64
2021/07/31 02:05:38;;;;;;;10.38;5.03;;;15.30;99.90;;;;;;5131765;27;20042;-64
2021/07/31 02:08:04;;;;;;;8.63;4.80;;;15.30;99.90;;;;;;5134089;27;20460;-64
2021/07/31 02:10:30;;;;;;;9.18;4.97;;;15.30;99.90;;;;;;5134818;27;20084;-64
2021/07/31 02:12:56;;;;;;;12.63;4.88;;;15.40;99.90;;;;;;5133879;27;20035;-64
2021/07/31 02:15:22;;;;;;;6.88;4.53;;;15.40;99.90;;;;;;5133245;27;20674;-64
2021/07/31 02:17:47;;;;;;;8.38;4.80;;;15.40;99.90;;;;;;5133761;27;20044;-64
2021/07/31 02:20:13;;;;;;;8.02;5.20;;;15.40;99.90;;;;;;5114788;27;20134;-64
2021/07/31 02:22:38;;;;;;;11.98;6.22;;;15.40;99.90;;;;;;5132406;27;20607;-65
2021/07/31 02:25:05;;;;;;;10.85;5.60;;;15.40;99.90;;;;;;5132732;27;20141;-64
2021/07/31 02:27:31;;;;;;;7.75;5.43;;;15.30;99.90;;;;;;5132847;27;20126;-64
2021/07/31 02:29:56;;;;;;;11.35;5.15;;;15.30;99.90;;;;;;5133714;27;20121;-65
2021/07/31 02:32:22;;;;;;;10.93;5.75;;;15.30;99.90;;;;;;5133275;27;20445;-64
2021/07/31 02:34:50;;;;;;;11.27;6.03;;;15.30;99.90;;;;;;5132897;27;20050;-64
2021/07/31 02:37:15;;;;;;;12.40;6.28;;;15.30;99.90;;;;;;5135859;27;20485;-64
2021/07/31 02:39:41;;;;;;;6.90;5.35;;;15.30;99.90;;;;;;5131495;27;20031;-64
2021/07/31 02:42:07;;;;;;;7.72;5.68;;;15.30;99.90;;;;;;5133972;27;20535;-64
2021/07/31 02:44:35;;;;;;;11.23;6.13;;;15.30;99.90;;;;;;5131162;27;20031;-64
2021/07/31 02:47:01;;;;;;;12.00;6.65;;;15.30;99.90;;;;;;5132711;27;20047;-64
2021/07/31 02:49:26;;;;;;;9.88;5.40;;;15.30;99.90;;;;;;5131578;27;20046;-64
2021/07/31 02:51:52;;;;;;;10.35;5.88;;;15.30;99.90;;;;;;5131844;27;20119;-64
2021/07/31 02:54:19;;;;;;;12.13;6.10;;;15.30;99.90;;;;;;5112650;27;20066;-64
2021/07/31 02:56:44;;;;;;;10.77;6.43;;;15.30;99.90;;;;;;5133364;27;20041;-64
2021/07/31 02:59:10;;;;;;;10.80;6.15;;;15.40;99.90;;;;;;5132074;27;20038;-64
2021/07/31 03:01:36;;;;;;;9.65;6.13;;;15.40;99.90;;;;;;5132153;27;20072;-65
2021/07/31 03:04:01;;;;;;;11.23;6.57;;;15.40;99.90;;;;;;5132064;27;20035;-64
2021/07/31 03:06:27;;;;;;;11.25;6.22;;;15.40;99.90;;;;;;5132643;27;20039;-64
2021/07/31 03:08:52;;;;;;;11.20;5.85;;;15.30;99.90;;;;;;5120377;27;20114;-64
2021/07/31 03:11:18;;;;;;;11.68;6.72;;;15.40;99.90;;;;;;5129100;27;20104;-64
2021/07/31 03:13:45;;;;;;;8.55;6.50;;;15.40;99.90;;;;;;5132789;27;20035;-64
2021/07/31 03:16:11;;;;;;;10.48;7.13;;;15.40;99.90;;;;;;5133216;27;20046;-64
2021/07/31 03:18:37;;;;;;;10.90;7.13;;;15.40;99.90;;;;;;5132896;27;20035;-64
2021/07/31 03:21:02;;;;;;;12.85;7.10;;;15.40;99.90;;;;;;5131280;27;20054;-64
2021/07/31 03:23:28;;;;;;;10.27;7.18;;;15.40;99.90;;;;;;5131787;27;20462;-64
2021/07/31 03:25:58;;;;;;;10.27;7.30;;;15.40;99.90;;;;;;5132546;27;20050;-64
2021/07/31 03:28:25;;;;;;;10.80;6.88;;;15.40;99.90;;;;;;5127722;27;20031;-65
2021/07/31 03:30:50;;;;;;;9.73;6.50;;;15.40;99.90;;;;;;5133177;27;20196;-64
2021/07/31 03:33:16;;;;;;;10.82;7.18;;;15.40;99.90;;;;;;5121330;27;20141;-64
2021/07/31 03:35:42;;;;;;;11.88;7.60;;;15.40;99.90;;;;;;5131088;27;20433;-64
2021/07/31 03:38:09;;;;;;;9.55;6.63;;;15.40;99.90;;;;;;5130608;27;20042;-65
2021/07/31 03:40:35;;;;;;;11.70;8.18;;;15.50;99.90;;;;;;5130999;27;20446;-65
2021/07/31 03:43:01;;;;;;;12.48;8.25;;;15.40;99.90;;;;;;5113513;27;20035;-65
2021/07/31 03:45:34;;;;;;;11.40;7.55;;;15.40;99.90;;;;;;5130847;27;20446;-65
2021/07/31 03:47:59;;;;;;;12.40;7.35;;;15.50;99.90;;;;;;5113373;27;20035;-65
2021/07/31 03:50:25;;;;;;;10.68;7.03;;;15.60;99.90;;;;;;5131168;27;20042;-64
2021/07/31 03:52:51;;;;;;;14.10;7.70;;;15.50;99.90;;;;;;5130337;27;20065;-64
2021/07/31 03:55:17;;;;;;;11.00;7.03;;;15.50;99.90;;;;;;5132339;27;20047;-64
2021/07/31 03:58:00;;;;;;;11.95;7.72;;;15.50;99.90;;;;;;5118820;27;20027;-64
2021/07/31 04:00:28;;;;;;;11.32;7.90;;;15.50;99.90;;;;;;5130661;27;20515;-64
2021/07/31 04:02:54;;;;;;;12.05;8.35;;;15.50;99.90;;;;;;5128953;27;20118;-64
2021/07/31 04:05:19;;;;;;;8.15;7.35;;;15.50;99.90;;;;;;5130993;27;20164;-64
2021/07/31 04:07:47;;;;;;;12.57;8.02;;;15.60;99.90;;;;;;5125667;27;20114;-64
2021/07/31 04:10:13;;;;;;;11.00;7.72;;;15.50;99.90;;;;;;5131140;27;20118;-65
2021/07/31 04:12:38;;;;;;;12.10;7.47;;;15.60;99.90;;;;;;5113144;27;20043;-65
2021/07/31 04:15:05;;;;;;;10.73;7.70;;;15.60;99.90;;;;;;5131067;27;20044;-64
2021/07/31 04:17:33;;;;;;;14.50;7.15;;;15.50;99.90;;;;;;5129840;27;20438;-65
2021/07/31 04:19:58;;;;;;;9.43;6.90;;;15.60;99.90;;;;;;5130174;27;20035;-64
2021/07/31 04:22:24;;;;;;;11.85;6.95;;;15.60;99.90;;;;;;5127895;27;20400;-64
2021/07/31 04:24:52;;;;;;;10.10;7.32;;;15.60;99.90;;;;;;5131029;27;20050;-65
2021/07/31 04:27:18;;;;;;;9.60;6.32;;;15.60;99.90;;;;;;5124644;27;20034;-65
2021/07/31 04:29:43;;;;;;;10.55;7.55;;;15.70;99.90;;;;;;5131056;27;20023;-64
2021/07/31 04:32:09;;;;;;;12.80;6.95;;;15.70;99.90;;;;;;5131560;27;20445;-65
2021/07/31 04:34:35;;;;;;;9.98;6.97;;;15.70;99.90;;;;;;5127113;27;20488;-64
2021/07/31 04:37:01;;;;;;;9.52;6.88;;;15.70;99.90;;;;;;5132074;27;20123;-64
2021/07/31 04:39:26;;;;;;;9.18;6.93;;;15.70;99.90;;;;;;5132478;27;20187;-64
2021/07/31 04:41:52;;;;;;;12.73;6.97;;;15.70;99.90;;;;;;5132212;27;20031;-64
2021/07/31 04:44:18;;;;;;;9.15;6.80;;;15.70;99.90;;;;;;5131444;27;20399;-64
2021/07/31 04:46:43;;;;;;;8.25;7.18;;;15.70;99.90;;;;;;5132383;27;20153;-64
2021/07/31 04:49:09;;;;;;;10.57;7.47;;;15.60;99.90;;;;;;5129594;27;20083;-64
2021/07/31 04:51:34;;;;;;;9.93;7.75;;;15.60;99.90;;;;;;5131514;28;20104;-64
2021/07/31 04:54:00;;;;;;;10.15;7.78;;;15.60;99.90;;;;;;5131788;28;20047;-64
2021/07/31 04:56:26;;;;;;;10.48;7.10;;;15.60;99.90;;;;;;5132110;27;20100;-64
2021/07/31 04:58:52;;;;;;;11.25;6.88;;;15.60;99.90;;;;;;5131232;28;20045;-64
2021/07/31 05:01:17;;;;;;;11.02;6.43;;;15.60;99.90;;;;;;5131930;28;20248;-64
2021/07/31 05:03:43;;;;;;;12.05;7.18;;;15.60;99.90;;;;;;5113615;28;20035;-64
2021/07/31 05:06:08;;;;;;;11.48;6.70;;;15.60;99.90;;;;;;5130854;28;20100;-64
2021/07/31 05:08:34;;;;;;;13.98;7.45;;;15.70;99.90;;;;;;5131328;28;20472;-65
2021/07/31 05:11:07;;;;;;;8.15;5.55;;;15.70;99.90;;;;;;5131977;28;20047;-65
2021/07/31 05:13:37;;;;;;;11.77;6.50;;;15.80;99.90;;;;;;5135052;27;20038;-64
2021/07/31 05:16:04;;;;;;;9.52;5.38;;;15.80;99.90;;;;;;5115444;28;20035;-64
2021/07/31 05:18:29;;;;;;;12.65;6.40;;;15.90;99.90;;;;;;5132602;27;20027;-64
2021/07/31 05:20:57;;;;;;;11.75;6.60;;;15.80;99.90;;;;;;5117734;27;20038;-65
2021/07/31 05:23:23;;;;;;;10.05;5.70;;;15.90;99.90;;;;;;5133607;27;20035;-64
2021/07/31 05:25:49;;;;;;;10.52;5.35;;;15.90;99.90;;;;;;5135873;27;20051;-64
2021/07/31 05:28:14;;;;;;;11.60;5.65;;;16.00;99.90;;;;;;5135081;27;20046;-64
2021/07/31 05:30:41;;;;;;;9.95;4.95;;;16.00;99.90;;;;;;5135370;27;20046;-64
2021/07/31 05:33:07;;;;;;;15.45;5.35;;;16.10;99.90;;;;;;5135449;27;20087;-64
2021/07/31 05:35:33;;;;;;;9.05;4.43;;;16.10;99.90;;;;;;5135457;27;20484;-65
2021/07/31 05:38:00;;;;;;;10.55;4.80;;;16.40;99.90;;;;;;5135357;27;20136;-64
2021/07/31 05:40:25;;;;;;;12.23;4.68;;;16.50;99.90;;;;;;5133315;27;20065;-65
2021/07/31 05:42:51;;;;;;;9.32;4.00;;;16.70;99.90;;;;;;5135189;27;20035;-65
2021/07/31 05:45:16;;;;;;;13.38;4.75;;;16.60;99.90;;;;;;5134512;27;20042;-65
2021/07/31 05:47:42;;;;;;;8.73;4.43;;;16.60;99.90;;;;;;5136117;27;20031;-65
2021/07/31 05:50:09;;;;;;;9.63;4.47;;;16.70;99.90;;;;;;5135296;27;20046;-65
2021/07/31 05:52:35;;;;;;;8.75;3.90;;;16.70;99.90;;;;;;5135172;27;20874;-65
2021/07/31 05:55:03;;;;;;;11.27;3.88;;;16.70;99.90;;;;;;5133525;27;20088;-65
2021/07/31 05:57:28;;;;;;;12.27;4.05;;;16.80;99.90;;;;;;5134631;27;20039;-65
2021/07/31 05:59:54;;;;;;;14.65;4.38;;;16.90;99.90;;;;;;5129531;27;20046;-65
2021/07/31 06:02:20;;;;;;;7.32;2.72;;;17.00;99.90;;;;;;5133265;27;20031;-66
2021/07/31 06:04:45;;;;;;;13.55;3.95;;;17.10;99.90;;;;;;5134690;27;20067;-65
2021/07/31 06:07:11;;;;;;;12.73;3.22;;;17.10;99.90;;;;;;5134663;27;20057;-66
2021/07/31 06:09:38;;;;;;;11.48;3.80;;;17.10;99.90;;;;;;5133649;27;20037;-65
2021/07/31 06:12:05;;;;;;;12.75;4.07;;;17.10;99.90;;;;;;5134515;27;20037;-65
2021/07/31 06:14:34;;;;;;;12.48;4.00;;;17.00;99.90;;;;;;5134109;27;20062;-65
2021/07/31 06:16:59;;;;;;;13.50;4.18;;;17.10;99.90;;;;;;5132963;27;20060;-65
2021/07/31 06:19:26;;;;;;;12.63;3.97;;;17.00;99.90;;;;;;5131661;27;20046;-65
2021/07/31 06:21:52;;;;;;;11.95;4.20;;;17.00;99.90;;;;;;5132617;27;20442;-65
2021/07/31 06:24:18;;;;;;;14.05;4.05;;;16.80;99.90;;;;;;5134002;27;20047;-65
2021/07/31 06:26:43;;;;;;;11.48;4.50;;;16.80;99.90;;;;;;5113702;27;20530;-64
2021/07/31 06:29:09;;;;;;;16.30;4.60;;;16.80;99.90;;;;;;5114066;27;20072;-65
2021/07/31 06:31:35;;;;;;;13.43;4.10;;;16.70;99.90;;;;;;5133158;27;20031;-65
2021/07/31 06:34:00;;;;;;;11.85;4.05;;;16.60;99.90;;;;;;5132886;27;20053;-65
2021/07/31 06:36:26;;;;;;;11.82;4.07;;;16.60;99.90;;;;;;5109784;27;20520;-65
2021/07/31 06:38:52;;;;;;;9.98;3.50;;;16.50;99.90;;;;;;5134136;27;20048;-65
2021/07/31 06:41:17;;;;;;;9.70;3.85;;;16.50;99.90;;;;;;5134289;27;20031;-65
2021/07/31 06:43:43;;;;;;;8.60;3.55;;;16.50;99.90;;;;;;5115911;27;20031;-65
2021/07/31 06:46:13;;;;;;;10.60;3.70;;;16.90;99.90;;;;;;5115905;27;20145;-65
2021/07/31 06:48:39;;;;;;;8.80;3.40;;;18.10;99.90;;;;;;5131682;27;20038;-65
2021/07/31 06:51:06;;;;;;;10.32;3.08;;;18.70;99.90;;;;;;5132818;27;20500;-65
2021/07/31 06:53:32;;;;;;;12.50;3.50;;;19.00;99.90;;;;;;5134224;27;20062;-65
2021/07/31 06:56:02;;;;;;;8.38;2.83;;;19.10;99.90;;;;;;5134464;27;20076;-65
2021/07/31 06:58:28;;;;;;;8.32;3.10;;;18.80;99.90;;;;;;5134258;27;20046;-65
2021/07/31 07:00:54;;;;;;;9.20;2.80;;;18.60;99.90;;;;;;5132693;27;20468;-65
2021/07/31 07:03:20;;;;;;;9.82;3.47;;;18.60;99.90;;;;;;5123187;27;20035;-65
2021/07/31 07:05:46;;;;;;;8.13;2.58;;;18.50;99.90;;;;;;5132142;27;20047;-65
2021/07/31 07:08:12;;;;;;;8.95;3.25;;;18.40;99.90;;;;;;5133708;27;20136;-65
2021/07/31 07:10:38;;;;;;;12.40;4.00;;;18.50;99.90;;;;;;5132617;27;20498;-66
2021/07/31 07:13:04;;;;;;;9.73;2.65;;;18.60;99.90;;;;;;5114035;27;20039;-65
2021/07/31 07:15:30;;;;;;;10.07;3.13;;;19.10;99.90;;;;;;5131939;27;20099;-65
2021/07/31 07:17:56;;;;;;;9.05;2.72;;;19.40;99.90;;;;;;5133454;27;20652;-65
2021/07/31 07:20:22;;;;;;;9.98;3.10;;;19.30;99.90;;;;;;5114256;27;20039;-66
2021/07/31 07:22:48;;;;;;;11.20;3.33;;;19.10;99.90;;;;;;5130498;27;20096;-65
2021/07/31 07:25:14;;;;;;;13.05;2.80;;;19.10;99.90;;;;;;5130744;27;20039;-65
2021/07/31 07:27:39;;;;;;;10.55;3.20;;;19.00;99.90;;;;;;5131484;27;20035;-66
2021/07/31 07:30:06;;;;;;;8.38;2.75;;;19.00;99.90;;;;;;5112966;27;20023;-65
2021/07/31 07:32:33;;;;;;;13.80;3.42;;;18.90;99.90;;;;;;5130230;27;20043;-66
2021/07/31 07:34:59;;;;;;;10.27;3.20;;;18.80;99.90;;;;;;5114377;27;20137;-66
2021/07/31 07:37:25;;;;;;;10.65;3.03;;;18.70;99.90;;;;;;5130621;27;21659;-65
2021/07/31 07:39:50;;;;;;;12.90;3.35;;;18.70;99.90;;;;;;5130076;27;20034;-65
2021/07/31 07:42:16;;;;;;;9.15;3.05;;;18.50;99.90;;;;;;5130102;27;20027;-65
2021/07/31 07:44:42;;;;;;;10.48;2.78;;;18.40;99.90;;;;;;5132078;27;20377;-65
2021/07/31 07:47:09;;;;;;;16.42;3.90;;;18.20;99.90;;;;;;5131472;27;20114;-65
2021/07/31 07:49:34;;;;;;;10.90;3.35;;;18.10;99.90;;;;;;5132441;27;20035;-64
2021/07/31 07:52:00;;;;;;;10.77;3.33;;;18.20;99.90;;;;;;5132291;27;20087;-64
2021/07/31 07:54:28;;;;;;;11.10;2.92;;;18.10;99.90;;;;;;5112602;27;20058;-65
2021/07/31 07:56:54;;;;;;;10.95;3.40;;;18.10;99.90;;;;;;5129570;27;20084;-65
2021/07/31 07:59:19;;;;;;;9.95;3.78;;;18.00;99.90;;;;;;5113452;27;20524;-65
2021/07/31 08:01:45;;;;;;;10.55;3.40;;;17.70;99.90;;;;;;5131286;27;20050;-65
2021/07/31 08:04:10;;;;;;;11.90;3.45;;;17.60;99.90;;;;;;5132518;27;20110;-65
2021/07/31 08:06:37;;;;;;;12.65;3.70;;;17.40;99.90;;;;;;5131804;27;20031;-65
2021/07/31 08:09:03;;;;;;;9.55;3.00;;;17.40;99.90;;;;;;5132420;27;20038;-65
2021/07/31 08:11:28;;;;;;;11.63;3.33;;;17.40;99.90;;;;;;5130422;27;20051;-66
2021/07/31 08:13:54;;;;;;;11.30;2.80;;;17.40;99.90;;;;;;5112767;27;20061;-65
2021/07/31 08:16:20;;;;;;;9.13;3.25;;;17.60;99.90;;;;;;5131975;27;20047;-64
2021/07/31 08:18:46;;;;;;;10.93;3.60;;;18.10;99.90;;;;;;5131330;27;20042;-64
2021/07/31 08:21:12;;;;;;;9.00;2.90;;;18.40;99.90;;;;;;5134623;27;20080;-65
2021/07/31 08:23:38;;;;;;;12.20;3.90;;;18.70;99.90;;;;;;5130863;27;20122;-64
2021/07/31 08:26:05;;;;;;;8.80;3.45;;;18.80;99.90;;;;;;5131111;27;20121;-65
2021/07/31 08:28:31;;;;;;;10.60;3.60;;;19.10;99.90;;;;;;5131821;27;20053;-65
2021/07/31 08:30:57;;;;;;;10.07;3.10;;;19.40;99.90;;;;;;5131743;27;20043;-65
2021/07/31 08:33:22;;;;;;;10.02;3.58;;;19.60;99.90;;;;;;5129282;27;20035;-65
2021/07/31 08:35:48;;;;;;;10.05;3.55;;;19.90;99.90;;;;;;5130335;27;20092;-64
2021/07/31 08:38:14;;;;;;;8.18;2.80;;;20.10;99.90;;;;;;5129685;27;20384;-64
2021/07/31 08:40:39;;;;;;;7.28;3.10;;;20.00;99.90;;;;;;5117612;28;20043;-65
2021/07/31 08:43:05;;;;;;;8.27;3.28;;;19.90;99.90;;;;;;5118142;27;20036;-64
2021/07/31 08:45:32;;;;;;;7.93;3.15;;;19.60;99.90;;;;;;5126826;27;20043;-64
2021/07/31 08:48:00;;;;;;;8.38;2.53;;;19.30;99.90;;;;;;5128760;27;20766;-64
2021/07/31 08:50:26;;;;;;;5.40;2.60;;;19.30;99.90;;;;;;5127608;27;20035;-64
2021/07/31 08:52:56;;;;;;;5.78;2.67;;;19.10;99.90;;;;;;5112888;28;20488;-64
2021/07/31 08:55:21;;;;;;;6.13;2.55;;;19.00;99.90;;;;;;5115037;28;20072;-64
2021/07/31 08:57:47;;;;;;;6.45;2.78;;;19.20;99.90;;;;;;5127596;28;20039;-64
2021/07/31 09:00:13;;;;;;;8.55;2.40;;;19.40;99.90;;;;;;5130778;28;20104;-64
2021/07/31 09:02:45;;;;;;;5.55;2.22;;;19.60;99.90;;;;;;5131287;28;20464;-65
2021/07/31 09:05:11;;;;;;;7.20;2.65;;;19.50;99.90;;;;;;5127628;28;20035;-64
2021/07/31 09:07:38;;;;;;;4.18;2.10;;;19.60;99.90;;;;;;5131177;28;20043;-64
2021/07/31 09:10:26;;;;;;;4.80;1.77;;;19.60;99.90;;;;;;5131557;28;20113;-64
2021/07/31 09:13:03;;;;;;;5.15;1.65;;;19.80;99.90;;;;;;5126853;27;20073;-64
2021/07/31 09:15:35;;;;;;;3.30;1.30;;;19.80;99.90;;;;;;5127767;28;20039;-65
2021/07/31 09:18:34;;;;;;;4.15;1.67;;;20.10;99.90;;;;;;5130662;28;20043;-65
2021/07/31 09:21:12;;;;;;;5.30;1.50;;;20.30;99.90;;;;;;5112808;28;20038;-65
2021/07/31 09:23:49;;;;;;;3.63;1.50;;;20.70;99.90;;;;;;5112509;28;20043;-65
2021/07/31 09:26:22;;;;;;;5.82;1.65;;;20.70;99.90;;;;;;5130169;28;20044;-65
2021/07/31 09:29:09;;;;;;;5.57;2.08;;;20.80;99.90;;;;;;5131938;27;20045;-65
2021/07/31 09:31:53;;;;;;;5.90;1.80;;;20.90;99.90;;;;;;5143190;22;20063;-64
2021/07/31 09:34:36;;;;;;;10.15;2.65;;;21.00;99.90;;;;;;5109534;28;20079;-65
2021/07/31 09:37:12;;;;;;;5.50;1.95;;;20.80;99.90;;;;;;5107876;28;20091;-65
2021/07/31 09:39:53;;;;;;;8.82;1.90;;;20.50;99.90;;;;;;5110466;28;20843;-65
2021/07/31 09:42:38;;;;;;;5.75;2.05;;;20.10;99.90;;;;;;5101267;28;20039;-66
2021/07/31 09:45:05;;;;;;;8.23;2.00;;;20.10;99.90;;;;;;5110672;28;20070;-65
2021/07/31 09:47:31;;;;;;;6.90;1.95;;;19.80;99.90;;;;;;5109879;28;20063;-65
2021/07/31 09:50:00;;;;;;;5.00;2.10;;;19.70;99.90;;;;;;5106506;28;20451;-65
2021/07/31 09:52:27;;;;;;;8.13;2.47;;;19.40;99.90;;;;;;5107827;28;20040;-66
2021/07/31 09:54:56;;;;;;;7.10;2.08;;;19.20;99.90;;;;;;5107914;28;20032;-65
2021/07/31 09:57:25;;;;;;;4.95;2.22;;;19.10;99.90;;;;;;5118207;28;20088;-64
2021/07/31 09:59:52;;;;;;;5.50;1.92;;;18.80;99.90;;;;;;5110068;28;20039;-65
2021/07/31 10:02:19;;;;;;;6.45;2.72;;;18.70;99.90;;;;;;5113610;28;20035;-65
2021/07/31 10:04:46;;;;;;;5.25;2.40;;;18.80;99.90;;;;;;5109547;28;20496;-65
2021/07/31 10:07:13;;;;;;;7.68;2.78;;;18.80;99.90;;;;;;5112937;28;20063;-65
2021/07/31 10:09:41;;;;;;;7.25;2.55;;;19.20;99.90;;;;;;5107752;28;20550;-64
2021/07/31 10:12:10;;;;;;;8.60;2.63;;;19.70;99.90;;;;;;5114333;28;20046;-64
2021/07/31 10:14:38;;;;;;;8.15;2.58;;;20.10;99.90;;;;;;5133978;27;20031;-64
2021/07/31 10:17:04;;;;;;;7.32;2.42;;;20.50;99.90;;;;;;5123758;27;20079;-64
2021/07/31 10:19:41;;;;;;;8.95;2.78;;;20.70;99.90;;;;;;5095821;28;20399;-65
2021/07/31 10:22:08;;;;;;;7.07;2.28;;;20.80;99.90;;;;;;5111612;28;20073;-65
2021/07/31 10:25:05;;;;;;;8.48;3.00;;;20.80;99.90;;;;;;5109880;28;20038;-65
2021/07/31 10:27:33;;;;;;;6.00;2.03;;;20.60;99.90;;;;;;5111320;28;20237;-65
2021/07/31 10:29:59;;;;;;;6.50;2.65;;;20.50;99.90;;;;;;5118906;27;20045;-65
2021/07/31 10:32:35;;;;;;;6.00;2.15;;;20.40;99.90;;;;;;5115945;27;20039;-65
2021/07/31 10:35:22;;;;;;;8.52;3.03;;;20.40;99.90;;;;;;5111519;28;20096;-65
2021/07/31 10:37:48;;;;;;;6.70;2.78;;;20.40;99.90;;;;;;5114174;28;20122;-67
2021/07/31 10:40:26;;;;;;;10.38;2.80;;;20.50;99.90;;;;;;5111038;28;20480;-66
2021/07/31 10:43:01;;;;;;;4.95;1.83;;;20.70;99.90;;;;;;5104548;28;20058;-66
2021/07/31 10:45:30;;;;;;;8.80;2.22;;;21.10;99.90;;;;;;5113570;28;20043;-66
2021/07/31 10:48:23;;;;;;;8.52;3.25;;;21.50;99.90;;;;;;5124359;27;20069;-66
2021/07/31 10:50:49;;;;;;;6.97;2.13;;;21.40;99.90;;;;;;5084645;28;20393;-66
2021/07/31 10:53:17;;;;;;;8.00;2.10;;;21.30;99.90;;;;;;5112148;28;20032;-66
2021/07/31 10:55:43;;;;;;;7.20;1.90;;;21.50;99.90;;;;;;5111394;28;20385;-66
2021/07/31 10:58:16;;;;;;;7.55;2.35;;;21.50;99.90;;;;;;5082730;28;20036;-66
2021/07/31 11:00:42;;;;;;;5.18;1.80;;;21.70;99.90;;;;;;5112243;28;20419;-66
2021/07/31 11:03:23;;;;;;;8.15;2.20;;;21.80;99.90;;;;;;5111726;28;20097;-66
2021/07/31 11:05:51;;;;;;;5.20;2.00;;;22.00;99.90;;;;;;5108431;28;20043;-66
2021/07/31 11:08:24;;;;;;;6.88;1.90;;;21.90;99.90;;;;;;5109977;28;20116;-67
2021/07/31 11:10:57;;;;;;;5.53;2.10;;;21.90;99.90;;;;;;5111122;28;20140;-67
2021/07/31 11:13:22;;;;;;;4.80;2.08;;;21.80;99.90;;;;;;5112100;28;20043;-67
2021/07/31 11:16:00;;;;;;;7.07;2.15;;;21.80;99.90;;;;;;5112761;28;20044;-66
2021/07/31 11:18:34;;;;;;;5.55;2.50;;;21.70;99.90;;;;;;5112391;28;20040;-67
2021/07/31 11:21:26;;;;;;;5.97;2.40;;;21.70;99.90;;;;;;5109174;27;20027;-67
2021/07/31 11:23:54;;;;;;;6.28;1.92;;;21.90;99.90;;;;;;5098729;28;20471;-67
2021/07/31 11:26:54;;;;;;;5.20;2.17;;;21.80;99.90;;;;;;5090704;28;20400;-67
2021/07/31 11:29:25;;;;;;;7.03;2.90;;;21.60;99.90;;;;;;5090109;28;20396;-67
2021/07/31 11:32:12;;;;;;;6.33;2.83;;;21.50;99.90;;;;;;5104336;27;20075;-64
2021/07/31 11:34:40;;;;;;;5.47;2.40;;;21.40;99.90;;;;;;5105857;27;20048;-65
2021/07/31 11:37:07;;;;;;;7.25;2.90;;;21.50;99.90;;;;;;5112647;27;20041;-65
2021/07/31 11:39:33;;;;;;;5.82;2.63;;;21.50;99.90;;;;;;5112610;27;20046;-65
2021/07/31 11:41:59;;;;;;;5.63;2.58;;;21.40;99.90;;;;;;5111900;27;20032;-64
2021/07/31 11:44:29;;;;;;;6.75;3.00;;;21.50;99.90;;;;;;5107505;28;20126;-65
2021/07/31 11:46:56;;;;;;;4.13;2.70;;;21.60;99.90;;;;;;5108148;28;20040;-64
2021/07/31 11:49:26;;;;;;;5.68;2.60;;;21.90;99.90;;;;;;5110213;28;20061;-65
2021/07/31 11:51:54;;;;;;;4.88;2.10;;;22.30;99.80;;;;;;5107175;28;20082;-65
2021/07/31 11:54:20;;;;;;;3.10;1.80;;;22.50;99.20;;;;;;5108282;28;20476;-65
2021/07/31 11:56:47;;;;;;;3.97;1.65;;;22.40;99.00;;;;;;5107244;28;20050;-65
2021/07/31 11:59:23;;;;;;;2.83;1.95;;;22.10;99.80;;;;;;5107196;28;20405;-65
2021/07/31 12:01:52;;;;;;;4.18;2.30;;;22.30;99.60;;;;;;5108364;28;20411;-65
2021/07/31 12:04:47;;;;;;;3.75;2.03;;;22.40;99.60;;;;;;5109230;28;20034;-65
2021/07/31 12:07:25;;;;;;;5.03;1.77;;;22.60;99.90;;;;;;5108155;28;20043;-65
2021/07/31 12:10:01;;;;;;;3.70;1.77;;;22.70;98.80;;;;;;5107942;28;20042;-65
2021/07/31 12:12:30;;;;;;;3.50;2.05;;;22.70;98.10;;;;;;5109532;27;20802;-66
2021/07/31 12:15:20;;;;;;;3.50;2.10;;;22.40;99.30;;;;;;5107321;28;20034;-65
2021/07/31 12:17:56;;;;;;;4.35;2.03;;;22.30;99.90;;;;;;5111006;28;20572;-65
2021/07/31 12:20:38;;;;;;;4.50;2.00;;;22.20;99.40;;;;;;5085743;28;20036;-65
2021/07/31 12:23:10;;;;;;;3.38;2.10;;;21.90;99.90;;;;;;5109717;28;20032;-65
2021/07/31 12:25:37;;;;;;;4.40;2.13;;;21.70;99.90;;;;;;5108539;28;20085;-65
2021/07/31 12:28:05;;;;;;;3.97;1.75;;;21.60;99.90;;;;;;5110655;28;20031;-65
2021/07/31 12:30:37;;;;;;;5.32;2.50;;;21.50;99.90;;;;;;5111203;27;20039;-65
2021/07/31 12:33:06;;;;;;;3.83;2.22;;;21.20;99.90;;;;;;5109002;28;20044;-65
2021/07/31 12:35:53;;;;;;;4.72;2.35;;;21.00;99.90;;;;;;5109849;28;20035;-65
2021/07/31 12:38:29;;;;;;;3.50;2.00;;;20.80;99.90;;;;;;5108837;28;20035;-65
2021/07/31 12:40:56;;;;;;;5.47;2.60;;;20.70;99.90;;;;;;5102742;28;20032;-65
2021/07/31 12:43:26;;;;;;;3.60;1.90;;;20.80;99.90;;;;;;5091550;28;20051;-65
2021/07/31 12:45:53;;;;;;;5.05;2.30;;;20.80;99.90;;;;;;5111465;28;20039;-65
2021/07/31 12:48:19;;;;;;;3.78;1.90;;;20.60;99.90;;;;;;5092081;28;20032;-65